Главная страница
METAR-TAF:

METAR-TAF

Аэропорты :

Якутск, Россия

широта: 62-01N, долгота: 129-43E, высота над уровнем моря: 103 м

Текущие метеонаблюдения

Эта сводка был подготовлена 41 минут назад, в 10:30 UTC
Ветер 2 Узел от южный-юго-западный
Температура 3°C
Влажность 81%
Давление 1015 hPa
Видимость 10 км и более
Нет облачности ниже 1500 м, и нет кучево-дождевой облачности

METAR: UEEE 241030Z 21001MPS CAVOK 03/M00 Q1015 R23L/09//60 NOSIG RMK QFE753

Время: 20:11 (11:11 UTC)

Прогноз

Эта сводка был подготовлена 3 часа и 11 минут назад, в 08:00 UTC
Прогноз действительный с 24-го 09 UTC до 25-го 15 UTC
Ветер 6 Узел от южный с порывами до 16 Узел
Видимость 10 км и более
Нет облачности ниже 1500 м, и нет кучево-дождевой облачности

TAF: UEEE 240800Z 2409/2515 18003G08MPS CAVOK

Метеонаблюдения и прогнозы для более 4000 аэропортов (сводки METAR и TAF).

Имеющиеся станции представлены на карте желтыми и красными точками.

Чтобы увидеть название станции, наведите на нее мышь.

Затем щелкните, чтобы увидеть метеонаблюдения и метеопрогнозы.

Управление картой: чтобы увеличить масштаб, щелкните зеленые кнопки с черным крестиком; чтобы уменьшить масштаб, щелкните зеленую кнопку с тире; для просмотра соседних карт щелкайте зеленые стрелки.


METAR-TAF: